North, South Carolina
Current Conditions -  °F | °C
As of 11:53 AM on Sunday 23 Nov 2014 (Local Time) from KOGB Reporting Station
Light Rain Light Rain  
Wind Chill: 60°   Ceiling: 700
Heat Index: 60°   Visibility: 5mi
Dew Point: 57°   Wind: 7mph
Humidity: 90%   Direction: 100°E
Pressure: 30.03"   Gusts: NA
Location:  33.62°N, 81.1°W
Report Text: KOGB 231653Z AUTO 10006KT 5SM -RA BR OVC007 16/14 A3003 RMK AO2 CIG 004V011 SLP168 P0012 T01560139
Loading
Personal Weather Stations






























Interactive Weather Map New forecast layout! Learn more

10-Day Weather Forecast

Advertisements
Track Severe Weather on mobile